Time;durP1;ratioP1;P1;durP2;ratioP2;P2;SDS_P1;SDS_P2;PMS_P1;PMS_P2;Temp;Humidity;BMP_temperature;BMP_pressure;BME280_temperature;BME280_humidity;BME280_pressure;Samples;Min_cycle;Max_cycle;Signal;HPM_P1;HPM_P2
2022/07/10 00:01:10;;;;;;;4.97;3.95;;;;;;;15.90;100.00;99342.22;4970781;28;20033;-65
2022/07/10 00:03:35;;;;;;;7.22;3.50;;;;;;;15.98;100.00;99358.28;4965022;28;20058;-65
2022/07/10 00:06:01;;;;;;;4.70;3.40;;;;;;;16.03;100.00;99367.69;4968748;28;20031;-65
2022/07/10 00:08:26;;;;;;;7.15;3.70;;;;;;;16.08;100.00;99365.09;4963950;28;20651;-65
2022/07/10 00:10:51;;;;;;;4.22;3.42;;;;;;;16.16;100.00;99371.09;4966122;28;20031;-65
2022/07/10 00:13:17;;;;;;;5.10;3.25;;;;;;;16.26;100.00;99369.75;4969554;28;20026;-65
2022/07/10 00:15:42;;;;;;;3.38;2.90;;;;;;;16.29;100.00;99366.56;4972514;28;20026;-65
2022/07/10 00:18:07;;;;;;;3.78;3.20;;;;;;;16.33;100.00;99363.16;4968042;28;20027;-65
2022/07/10 00:20:33;;;;;;;11.30;3.70;;;;;;;16.32;100.00;99366.13;4960510;28;20417;-66
2022/07/10 00:22:59;;;;;;;4.53;2.80;;;;;;;16.25;100.00;99363.47;4970554;28;20018;-65
2022/07/10 00:25:24;;;;;;;4.07;2.90;;;;;;;16.05;100.00;99338.28;4971590;28;20027;-65
2022/07/10 00:27:50;;;;;;;4.43;3.58;;;;;;;16.12;100.00;99363.63;4967746;28;20031;-65
2022/07/10 00:30:15;;;;;;;6.25;3.67;;;;;;;16.03;100.00;99348.56;4969090;28;20110;-65
2022/07/10 00:32:40;;;;;;;6.05;3.35;;;;;;;16.00;100.00;99360.78;4967151;28;20022;-65
2022/07/10 00:35:07;;;;;;;4.90;3.47;;;;;;;15.88;100.00;99362.59;4967964;28;20447;-65
2022/07/10 00:37:32;;;;;;;3.42;3.08;;;;;;;15.82;100.00;99352.56;4966795;28;20023;-65
2022/07/10 00:39:58;;;;;;;6.38;3.78;;;;;;;15.77;100.00;99364.13;4966435;28;20029;-65
2022/07/10 00:42:23;;;;;;;8.93;3.88;;;;;;;15.71;100.00;99356.84;4968076;28;20026;-65
2022/07/10 00:44:48;;;;;;;4.78;3.50;;;;;;;15.61;100.00;99356.47;4968057;28;20085;-65
2022/07/10 00:47:17;;;;;;;5.72;3.55;;;;;;;15.63;100.00;99344.28;4967067;28;20031;-65
2022/07/10 00:49:42;;;;;;;4.87;3.23;;;;;;;15.57;100.00;99351.47;4965974;28;20459;-65
2022/07/10 00:52:10;;;;;;;4.68;3.83;;;;;;;15.46;100.00;99357.66;4968186;28;20114;-65
2022/07/10 00:54:37;;;;;;;5.55;3.67;;;;;;;15.40;100.00;99349.50;4971235;28;20023;-65
2022/07/10 00:57:05;;;;;;;4.85;4.00;;;;;;;15.32;100.00;99359.63;4967284;28;20038;-65
2022/07/10 00:59:31;;;;;;;4.70;3.58;;;;;;;15.26;100.00;99367.88;4966063;28;20034;-65
2022/07/10 01:01:56;;;;;;;5.18;3.58;;;;;;;15.28;100.00;99357.59;4966636;28;20050;-66
2022/07/10 01:04:21;;;;;;;5.32;3.90;;;;;;;15.31;100.00;99354.41;4970213;28;20077;-65
2022/07/10 01:06:47;;;;;;;6.40;4.03;;;;;;;15.25;100.00;99320.69;4964420;28;20054;-65
2022/07/10 01:09:12;;;;;;;5.20;4.22;;;;;;;15.26;100.00;99340.59;4962583;28;20035;-65
2022/07/10 01:11:38;;;;;;;5.35;4.43;;;;;;;15.25;100.00;99347.13;4966049;28;20026;-65
2022/07/10 01:14:04;;;;;;;7.05;4.63;;;;;;;15.21;100.00;99359.50;4962891;28;20065;-65
2022/07/10 01:16:30;;;;;;;4.95;4.00;;;;;;;15.16;100.00;99351.97;4966396;28;20062;-65
2022/07/10 01:18:56;;;;;;;4.47;3.90;;;;;;;15.04;100.00;99346.41;4969160;28;20476;-65
2022/07/10 01:21:29;;;;;;;4.03;3.40;;;;;;;14.91;100.00;99349.22;4965547;28;20038;-65
2022/07/10 01:23:55;;;;;;;4.72;3.90;;;;;;;14.80;100.00;99348.03;4964969;28;20030;-65
2022/07/10 01:26:23;;;;;;;4.75;3.80;;;;;;;14.78;100.00;99352.84;4966375;28;20035;-65
2022/07/10 01:28:50;;;;;;;7.88;4.35;;;;;;;14.67;100.00;99346.19;4968982;28;20389;-65
2022/07/10 01:31:20;;;;;;;6.30;4.20;;;;;;;14.59;100.00;99338.28;4964144;28;20070;-65
2022/07/10 01:33:46;;;;;;;6.47;4.60;;;;;;;14.60;100.00;99334.50;4966478;28;20028;-65
2022/07/10 01:36:11;;;;;;;5.32;3.97;;;;;;;14.50;100.00;99336.81;4969554;28;20125;-65
2022/07/10 01:38:37;;;;;;;5.25;3.72;;;;;;;14.44;100.00;99341.22;4966720;28;20074;-66
2022/07/10 01:41:02;;;;;;;6.85;3.95;;;;;;;14.49;100.00;99351.47;4969010;28;20117;-66
2022/07/10 01:43:27;;;;;;;5.43;4.38;;;;;;;14.39;100.00;99332.03;4964755;28;20030;-65
2022/07/10 01:45:53;;;;;;;5.32;3.95;;;;;;;14.51;100.00;99351.25;4966434;28;20058;-65
2022/07/10 01:48:18;;;;;;;5.75;3.95;;;;;;;14.48;100.00;99352.50;4970224;28;20150;-65
2022/07/10 01:50:43;;;;;;;7.90;3.92;;;;;;;14.48;100.00;99349.78;4961815;28;20385;-65
2022/07/10 01:53:10;;;;;;;5.15;3.83;;;;;;;14.50;100.00;99353.13;4964860;28;20111;-65
2022/07/10 01:55:36;;;;;;;4.57;3.55;;;;;;;14.55;100.00;99360.69;4962918;28;20065;-65
2022/07/10 01:58:01;;;;;;;5.03;4.15;;;;;;;14.53;100.00;99354.63;4970663;28;20445;-65
2022/07/10 02:00:27;;;;;;;8.15;4.28;;;;;;;14.74;100.00;99364.38;4962509;28;20027;-66
2022/07/10 02:05:37;;;;;;;6.70;4.38;;;;;;;14.55;100.00;99334.31;4966985;28;20504;-65
2022/07/10 02:08:03;;;;;;;7.10;4.63;;;;;;;14.73;100.00;99362.72;4968594;28;20034;-66
2022/07/10 02:10:29;;;;;;;6.78;4.28;;;;;;;14.61;100.00;99340.75;4967623;28;20042;-66
2022/07/10 02:12:55;;;;;;;6.57;4.18;;;;;;;14.79;100.00;99353.69;4970493;28;20413;-65
2022/07/10 02:15:21;;;;;;;8.60;4.32;;;;;;;14.89;100.00;99362.22;4972808;28;20033;-65
2022/07/10 02:17:46;;;;;;;6.55;4.63;;;;;;;14.84;100.00;99362.88;4972267;28;20028;-65
2022/07/10 02:20:12;;;;;;;7.30;4.40;;;;;;;14.87;100.00;99356.16;4969583;28;20034;-66
2022/07/10 02:22:37;;;;;;;6.53;4.80;;;;;;;14.67;100.00;99348.91;4972975;28;20061;-66
2022/07/10 02:25:03;;;;;;;5.13;4.60;;;;;;;14.76;100.00;99363.13;4972497;28;20034;-65
2022/07/10 02:27:28;;;;;;;4.80;3.97;;;;;;;14.73;100.00;99343.66;4972015;28;20394;-65
2022/07/10 02:29:54;;;;;;;5.78;4.43;;;;;;;14.92;100.00;99363.66;4964489;28;20034;-65
2022/07/10 02:32:19;;;;;;;5.60;3.65;;;;;;;14.98;100.00;99369.06;4969201;28;20041;-66
2022/07/10 02:34:44;;;;;;;5.75;4.38;;;;;;;15.00;100.00;99369.69;4968807;28;20462;-66
2022/07/10 02:37:09;;;;;;;6.32;4.20;;;;;;;14.96;100.00;99376.66;4971286;28;20022;-65
2022/07/10 02:39:35;;;;;;;5.22;3.88;;;;;;;14.87;100.00;99372.50;4968187;28;20554;-65
2022/07/10 02:42:00;;;;;;;6.10;4.10;;;;;;;14.85;100.00;99377.31;4972353;28;20026;-65
2022/07/10 02:44:25;;;;;;;5.07;4.18;;;;;;;14.75;100.00;99375.06;4971276;28;20065;-65
2022/07/10 02:46:50;;;;;;;4.82;4.10;;;;;;;14.75;100.00;99366.03;4967222;28;20038;-65
2022/07/10 02:49:16;;;;;;;5.75;4.18;;;;;;;14.77;100.00;99370.22;4967334;28;20057;-65
2022/07/10 02:51:41;;;;;;;7.70;4.65;;;;;;;14.65;100.00;99342.00;4968032;28;20034;-65
2022/07/10 02:54:07;;;;;;;5.90;4.38;;;;;;;14.88;100.00;99374.16;4973769;28;20066;-65
2022/07/10 02:56:33;;;;;;;6.07;4.03;;;;;;;15.01;100.00;99379.56;4972071;28;20046;-65
2022/07/10 02:58:58;;;;;;;5.43;4.00;;;;;;;15.03;100.00;99377.44;4972415;28;20101;-66
2022/07/10 03:01:24;;;;;;;6.22;3.88;;;;;;;15.10;100.00;99389.13;4966793;28;20481;-65
2022/07/10 03:03:49;;;;;;;5.35;3.67;;;;;;;15.04;100.00;99359.22;4971739;28;20438;-65
2022/07/10 03:06:15;;;;;;;6.93;3.75;;;;;;;15.20;100.00;99390.56;4961847;28;20038;-66
2022/07/10 03:08:41;;;;;;;7.22;3.95;;;;;;;15.28;100.00;99380.22;4964280;28;20027;-65
2022/07/10 03:11:07;;;;;;;6.13;3.92;;;;;;;15.26;100.00;99378.78;4970901;28;20496;-65
2022/07/10 03:13:32;;;;;;;5.05;3.83;;;;;;;15.24;100.00;99380.88;4968776;28;20031;-65
2022/07/10 03:15:57;;;;;;;7.55;3.72;;;;;;;15.12;100.00;99389.75;4971552;28;20639;-65
2022/07/10 03:18:23;;;;;;;5.22;3.72;;;;;;;15.01;100.00;99387.72;4969719;28;20089;-65
2022/07/10 03:20:48;;;;;;;6.53;3.97;;;;;;;14.86;100.00;99376.28;4968962;28;20476;-65
2022/07/10 03:23:14;;;;;;;5.45;3.92;;;;;;;14.76;100.00;99376.72;4970899;28;20027;-65
2022/07/10 03:25:39;;;;;;;8.40;4.60;;;;;;;14.68;100.00;99369.66;4971018;28;20536;-65
2022/07/10 03:28:04;;;;;;;6.28;4.18;;;;;;;14.61;100.00;99374.28;4963208;28;20485;-65
2022/07/10 03:30:30;;;;;;;9.93;4.47;;;;;;;14.57;100.00;99378.50;4968056;28;20031;-65
2022/07/10 03:32:55;;;;;;;8.13;4.10;;;;;;;14.59;100.00;99387.28;4973087;28;20038;-65
2022/07/10 03:35:20;;;;;;;5.80;4.20;;;;;;;14.58;100.00;99382.88;4967143;28;20149;-65
2022/07/10 03:37:45;;;;;;;5.85;3.78;;;;;;;14.59;100.00;99384.56;4959508;28;20441;-65
2022/07/10 03:40:11;;;;;;;4.95;4.13;;;;;;;14.40;100.00;99350.03;4969760;28;20058;-65
2022/07/10 03:42:36;;;;;;;5.40;3.72;;;;;;;14.52;100.00;99374.72;4968112;28;20022;-65
2022/07/10 03:45:01;;;;;;;7.97;4.15;;;;;;;14.50;100.00;99380.38;4972527;28;20037;-65
2022/07/10 03:47:27;;;;;;;7.53;3.97;;;;;;;14.48;100.00;99382.47;4970920;28;20034;-65
2022/07/10 03:49:52;;;;;;;5.78;4.07;;;;;;;14.45;100.00;99377.44;4970338;28;20035;-65
2022/07/10 03:52:17;;;;;;;5.85;4.18;;;;;;;14.50;100.00;99383.09;4964973;28;20037;-65
2022/07/10 03:54:42;;;;;;;9.23;4.30;;;;;;;14.47;100.00;99383.53;4968434;28;20041;-65
2022/07/10 03:59:52;;;;;;;5.00;3.70;;;;;;;14.56;100.00;99387.69;4967879;28;20045;-65
2022/07/10 04:02:17;;;;;;;6.18;4.22;;;;;;;14.59;100.00;99392.75;4970414;28;20027;-65
2022/07/10 04:04:42;;;;;;;4.43;3.83;;;;;;;14.58;100.00;99390.22;4968389;28;20030;-65
2022/07/10 04:07:08;;;;;;;5.15;3.83;;;;;;;14.56;100.00;99379.53;4967800;28;20026;-65
2022/07/10 04:09:33;;;;;;;7.00;3.78;;;;;;;14.57;100.00;99378.50;4964756;28;20034;-65
2022/07/10 04:11:58;;;;;;;7.53;4.45;;;;;;;14.58;100.00;99385.59;4965883;28;20400;-65
2022/07/10 04:14:23;;;;;;;7.00;4.28;;;;;;;14.57;100.00;99381.22;4968163;28;20443;-66
2022/07/10 04:16:49;;;;;;;5.55;4.00;;;;;;;14.63;100.00;99385.78;4970637;28;20711;-65
2022/07/10 04:19:15;;;;;;;5.88;4.03;;;;;;;14.55;100.00;99372.41;4968571;28;20034;-65
2022/07/10 04:21:40;;;;;;;7.10;3.83;;;;;;;14.60;100.00;99383.50;4971467;28;20022;-65
2022/07/10 04:24:05;;;;;;;7.85;4.65;;;;;;;14.71;100.00;99383.88;4966206;28;20508;-65
2022/07/10 04:26:31;;;;;;;8.32;4.55;;;;;;;14.82;100.00;99385.94;4969864;28;20026;-65
2022/07/10 04:28:56;;;;;;;5.57;4.20;;;;;;;14.76;100.00;99389.53;4968444;28;20443;-65
2022/07/10 04:31:21;;;;;;;5.63;4.07;;;;;;;14.80;100.00;99385.31;4971286;28;20033;-65
2022/07/10 04:33:46;;;;;;;7.65;4.22;;;;;;;14.85;100.00;99388.22;4966363;28;20432;-65
2022/07/10 04:36:12;;;;;;;6.78;3.90;;;;;;;14.99;100.00;99402.63;4969480;28;20041;-65
2022/07/10 04:38:37;;;;;;;5.68;4.05;;;;;;;14.99;100.00;99403.47;4961169;28;20601;-65
2022/07/10 04:41:03;;;;;;;6.28;4.43;;;;;;;14.97;100.00;99394.66;4968283;28;20031;-64
2022/07/10 04:43:30;;;;;;;5.65;4.10;;;;;;;15.08;100.00;99402.13;4968116;28;20029;-65
2022/07/10 04:45:55;;;;;;;7.15;4.15;;;;;;;15.24;100.00;99403.50;4968267;28;20041;-65
2022/07/10 04:48:21;;;;;;;6.20;4.05;;;;;;;15.34;100.00;99400.31;4970213;28;20022;-65
2022/07/10 04:50:46;;;;;;;6.68;4.25;;;;;;;15.52;100.00;99389.50;4970089;28;20093;-65
2022/07/10 04:53:12;;;;;;;6.20;4.10;;;;;;;15.56;100.00;99388.00;4967460;28;20560;-65
2022/07/10 04:55:37;;;;;;;6.55;3.65;;;;;;;15.61;100.00;99387.31;4965564;28;20037;-65
2022/07/10 04:58:02;;;;;;;5.70;3.78;;;;;;;15.64;100.00;99391.50;4969141;28;20027;-65
2022/07/10 05:00:28;;;;;;;8.52;3.28;;;;;;;15.69;100.00;99394.41;4969952;28;20043;-65
2022/07/10 05:02:53;;;;;;;5.13;2.95;;;;;;;15.50;100.00;99375.22;4970356;28;20377;-65
2022/07/10 05:05:18;;;;;;;5.18;3.35;;;;;;;15.72;100.00;99394.00;4960795;28;20054;-64
2022/07/10 05:07:44;;;;;;;8.98;3.60;;;;;;;15.83;100.00;99387.81;4970621;28;20106;-64
2022/07/10 05:10:09;;;;;;;4.40;3.08;;;;;;;16.00;100.00;99397.09;4971020;28;20477;-64
2022/07/10 05:12:34;;;;;;;6.00;3.25;;;;;;;16.16;100.00;99392.13;4971246;28;20038;-64
2022/07/10 05:15:00;;;;;;;5.28;2.88;;;;;;;16.32;100.00;99404.34;4968778;28;20030;-64
2022/07/10 05:17:31;;;;;;;4.35;2.90;;;;;;;16.55;100.00;99399.03;4997898;23;20045;-56
2022/07/10 05:19:57;;;;;;;6.70;2.80;;;;;;;16.72;100.00;99398.44;5015028;28;20033;-57
2022/07/10 05:22:22;;;;;;;5.93;3.28;;;;;;;16.73;100.00;99398.19;5018732;28;20018;-56
2022/07/10 05:24:48;;;;;;;4.10;2.50;;;;;;;16.82;100.00;99399.59;5007289;28;20104;-56
2022/07/10 05:27:14;;;;;;;4.25;2.30;;;;;;;16.86;100.00;99402.72;4997223;28;20048;-56
2022/07/10 05:29:39;;;;;;;6.65;2.13;;;;;;;17.01;100.00;99405.06;5002509;28;20054;-56
2022/07/10 05:32:05;;;;;;;4.45;2.25;;;;;;;17.18;100.00;99405.22;5000201;28;20104;-56
2022/07/10 05:34:30;;;;;;;3.85;2.22;;;;;;;17.53;100.00;99413.56;4997696;28;20172;-56
2022/07/10 05:36:56;;;;;;;5.88;1.98;;;;;;;18.16;99.61;99420.34;5001701;28;20044;-57
2022/07/10 05:39:22;;;;;;;4.65;1.77;;;;;;;18.53;88.93;99417.38;5000104;28;20080;-56
2022/07/10 05:41:47;;;;;;;4.57;1.90;;;;;;;18.64;87.16;99415.66;5003733;28;20022;-57
2022/07/10 05:44:12;;;;;;;3.92;1.80;;;;;;;18.68;87.28;99423.19;5008828;28;20038;-57
2022/07/10 05:46:38;;;;;;;3.72;1.88;;;;;;;18.56;87.91;99420.44;5010966;28;20025;-57
2022/07/10 05:49:03;;;;;;;5.05;1.60;;;;;;;18.39;85.16;99423.09;5011427;28;20030;-57
2022/07/10 05:51:29;;;;;;;3.80;1.63;;;;;;;18.19;87.55;99422.63;5010202;28;20022;-57
2022/07/10 05:53:54;;;;;;;2.90;1.67;;;;;;;18.34;84.82;99438.59;5014550;28;22347;-57
2022/07/10 05:56:19;;;;;;;3.50;1.45;;;;;;;18.77;83.37;99420.91;5009886;28;20129;-57
2022/07/10 05:58:45;;;;;;;3.60;1.65;;;;;;;18.66;78.99;99427.22;5008519;28;20076;-57
2022/07/10 06:01:11;;;;;;;3.35;1.40;;;;;;;18.79;78.87;99435.22;5006442;28;20037;-57
2022/07/10 06:03:36;;;;;;;3.20;1.23;;;;;;;19.02;78.21;99426.94;5007111;28;20053;-56
2022/07/10 06:06:01;;;;;;;2.63;1.30;;;;;;;19.35;73.03;99425.38;5009832;28;20036;-57
2022/07/10 06:08:27;;;;;;;2.92;1.52;;;;;;;19.52;71.37;99439.16;5010057;28;20056;-57
2022/07/10 06:10:52;;;;;;;3.47;1.30;;;;;;;19.58;69.26;99431.84;5008936;28;20030;-57
2022/07/10 06:13:18;;;;;;;3.20;1.60;;;;;;;19.60;66.21;99435.16;5005122;28;20064;-57
2022/07/10 06:15:44;;;;;;;7.00;1.63;;;;;;;19.58;65.92;99440.06;4999923;28;20034;-57
2022/07/10 06:18:09;;;;;;;1.83;1.13;;;;;;;20.10;64.48;99434.41;5013210;28;20418;-57
2022/07/10 06:20:35;;;;;;;2.50;1.23;;;;;;;20.02;63.23;99429.31;5009559;28;20487;-57
2022/07/10 06:23:00;;;;;;;4.07;1.02;;;;;;;20.30;61.79;99436.63;5011171;28;20080;-57
2022/07/10 06:25:25;;;;;;;5.82;1.10;;;;;;;19.75;61.05;99431.88;5008939;28;20962;-57
2022/07/10 06:27:51;;;;;;;2.20;0.90;;;;;;;19.85;59.42;99443.03;5011060;28;20036;-57
2022/07/10 06:30:16;;;;;;;4.20;1.00;;;;;;;19.96;60.56;99446.78;5000806;28;20023;-57
2022/07/10 06:32:44;;;;;;;3.50;1.00;;;;;;;19.85;60.39;99448.53;5004120;28;20029;-57
2022/07/10 06:35:09;;;;;;;2.40;0.88;;;;;;;20.25;58.77;99442.88;5006307;28;20029;-57
2022/07/10 06:37:35;;;;;;;5.32;1.35;;;;;;;20.98;57.13;99448.31;5010124;28;20018;-57
2022/07/10 06:40:00;;;;;;;2.20;0.90;;;;;;;21.13;55.37;99444.94;5003542;28;20489;-57
2022/07/10 06:42:26;;;;;;;5.03;1.15;;;;;;;20.93;55.35;99440.00;5011905;28;20044;-57
2022/07/10 06:44:51;;;;;;;2.67;0.85;;;;;;;20.40;56.96;99442.28;5006689;28;20026;-57
2022/07/10 06:50:04;;;;;;;5.53;1.20;;;;;;;19.75;57.81;99457.41;5014711;28;20041;-57
2022/07/10 06:52:32;;;;;;;3.85;0.77;;;;;;;19.93;57.45;99454.44;5019486;28;20061;-56
2022/07/10 06:54:58;;;;;;;6.45;1.10;;;;;;;20.12;56.79;99456.94;5008724;28;20037;-56
2022/07/10 06:57:24;;;;;;;5.50;1.17;;;;;;;20.63;55.35;99457.75;5005086;28;20381;-56
2022/07/10 06:59:49;;;;;;;5.82;0.88;;;;;;;20.84;54.30;99458.03;5012801;28;20021;-56
2022/07/10 07:02:14;;;;;;;2.58;0.80;;;;;;;20.39;55.42;99459.84;5005056;28;20466;-56
2022/07/10 07:04:40;;;;;;;6.22;1.13;;;;;;;19.98;56.76;99466.59;5008703;28;20581;-56
2022/07/10 07:07:05;;;;;;;5.90;0.90;;;;;;;19.33;58.54;99465.94;5007179;28;20053;-56
2022/07/10 07:09:31;;;;;;;4.60;1.10;;;;;;;18.82;59.69;99471.19;5010226;28;20424;-56
2022/07/10 07:11:56;;;;;;;5.70;1.00;;;;;;;18.63;62.45;99472.41;5010419;28;20060;-57
2022/07/10 07:14:21;;;;;;;4.38;1.00;;;;;;;18.75;62.54;99470.50;5011029;28;20385;-56
2022/07/10 07:16:57;;;;;;;3.28;0.90;;;;;;;19.37;60.91;99463.56;5011511;28;20100;-56
2022/07/10 07:19:30;;;;;;;2.38;0.80;;;;;;;19.33;60.01;99470.59;5014299;28;20033;-56
2022/07/10 07:24:42;;;;;;;2.13;0.90;;;;;;;19.76;59.07;99464.59;5013919;28;20102;-56
2022/07/10 07:27:07;;;;;;;3.33;0.73;;;;;;;19.98;57.66;99466.59;5005594;28;20374;-57
2022/07/10 07:29:33;;;;;;;3.15;0.95;;;;;;;20.33;57.07;99464.44;5015215;28;20045;-56
2022/07/10 07:31:58;;;;;;;3.35;0.82;;;;;;;20.87;55.18;99460.28;5007255;28;20038;-56
2022/07/10 07:34:24;;;;;;;1.33;0.80;;;;;;;21.19;52.28;99463.16;5015958;28;20026;-57
2022/07/10 07:36:49;;;;;;;0.95;0.55;;;;;;;21.01;52.41;99458.81;5004918;28;20049;-56
2022/07/10 07:39:15;;;;;;;3.90;0.93;;;;;;;20.55;53.45;99471.94;5005068;28;20489;-57
2022/07/10 07:41:40;;;;;;;3.95;0.93;;;;;;;20.36;54.28;99465.84;5008042;28;20026;-57
2022/07/10 07:44:05;;;;;;;2.17;0.70;;;;;;;20.18;54.52;99469.69;5006470;28;20053;-57
2022/07/10 07:46:31;;;;;;;2.30;0.77;;;;;;;19.59;55.10;99474.66;5007284;28;20041;-57
2022/07/10 07:48:57;;;;;;;1.85;0.90;;;;;;;19.14;56.91;99483.66;5003140;28;20018;-57
2022/07/10 07:51:22;;;;;;;4.10;0.80;;;;;;;18.83;58.64;99491.22;5016454;28;20025;-57
2022/07/10 07:53:48;;;;;;;4.05;0.88;;;;;;;18.73;58.33;99488.22;5003150;28;20120;-57
2022/07/10 07:56:13;;;;;;;2.70;1.00;;;;;;;18.79;57.99;99481.84;5011145;28;20408;-57
2022/07/10 07:58:38;;;;;;;5.47;0.95;;;;;;;19.25;57.31;99471.81;5011425;28;20076;-57
2022/07/10 08:01:04;;;;;;;3.50;0.80;;;;;;;19.61;56.41;99473.34;5009857;28;20041;-57
2022/07/10 08:03:29;;;;;;;5.28;1.27;;;;;;;19.82;55.10;99474.56;5011426;28;20481;-57
2022/07/10 08:05:55;;;;;;;2.63;1.10;;;;;;;19.77;54.38;99481.88;5008999;28;20406;-57
2022/07/10 08:08:20;;;;;;;3.40;0.60;;;;;;;19.96;54.71;99475.06;5006275;28;20034;-57
2022/07/10 08:10:46;;;;;;;2.78;0.98;;;;;;;21.00;53.08;99468.97;5010002;28;20033;-57
2022/07/10 08:13:11;;;;;;;1.42;0.68;;;;;;;22.89;47.95;99456.13;5003429;28;20036;-57
2022/07/10 08:15:37;;;;;;;2.55;0.80;;;;;;;22.74;46.46;99469.81;5006357;28;20021;-57
2022/07/10 08:18:04;;;;;;;3.30;0.82;;;;;;;22.00;46.95;99465.13;5009616;28;20048;-57
2022/07/10 08:20:30;;;;;;;3.85;0.82;;;;;;;21.51;48.24;99462.44;5020425;28;20021;-57
2022/07/10 08:22:56;;;;;;;1.15;0.65;;;;;;;20.76;50.14;99468.38;5006511;28;20433;-57
2022/07/10 08:25:22;;;;;;;3.72;0.60;;;;;;;20.71;49.57;99465.56;5009413;28;20030;-57
2022/07/10 08:27:48;;;;;;;6.30;0.80;;;;;;;20.56;50.04;99462.59;5009058;28;20030;-57
2022/07/10 08:30:14;;;;;;;2.55;0.90;;;;;;;20.70;50.11;99452.09;5004965;28;20049;-55
2022/07/10 08:32:40;;;;;;;2.22;0.70;;;;;;;20.64;49.64;99453.91;5008482;28;20033;-56
2022/07/10 08:35:08;;;;;;;2.90;0.90;;;;;;;21.23;48.60;99445.88;5012847;28;20099;-57
2022/07/10 08:37:41;;;;;;;1.27;0.68;;;;;;;21.20;48.80;99449.16;5014746;28;20500;-57
2022/07/10 08:40:11;;;;;;;1.95;1.08;;;;;;;21.34;48.32;99457.00;5007123;28;20026;-57
2022/07/10 08:42:37;;;;;;;5.38;0.70;;;;;;;21.25;48.17;99451.13;4997301;28;20037;-56
2022/07/10 08:45:03;;;;;;;2.83;0.85;;;;;;;21.34;48.15;99454.25;5002790;28;20033;-56
2022/07/10 08:47:31;;;;;;;3.63;0.90;;;;;;;21.18;48.12;99456.00;4997295;28;20054;-56
2022/07/10 08:49:57;;;;;;;2.60;0.90;;;;;;;21.19;47.42;99446.66;5004865;28;20022;-56
2022/07/10 08:52:30;;;;;;;4.68;0.88;;;;;;;22.39;45.20;99449.19;5002394;28;20034;-56
2022/07/10 08:54:56;;;;;;;2.53;1.02;;;;;;;22.62;44.38;99463.69;4994972;28;20390;-56
2022/07/10 08:57:23;;;;;;;3.97;0.90;;;;;;;22.80;43.85;99452.22;5006504;28;20025;-56
2022/07/10 08:59:49;;;;;;;3.33;0.80;;;;;;;23.59;42.44;99453.09;5005412;28;20037;-57
2022/07/10 09:02:14;;;;;;;1.38;0.60;;;;;;;24.25;42.14;99452.31;5000170;28;20029;-57
2022/07/10 09:04:40;;;;;;;1.30;0.70;;;;;;;23.96;41.76;99452.06;5003303;28;20029;-57
2022/07/10 09:07:05;;;;;;;2.63;0.52;;;;;;;22.60;43.87;99457.63;5005707;28;20080;-57
2022/07/10 09:09:30;;;;;;;1.40;0.55;;;;;;;22.17;44.95;99457.56;5001641;28;20030;-57
2022/07/10 09:11:57;;;;;;;2.05;0.45;;;;;;;22.27;44.67;99460.44;4998728;28;20034;-57
2022/07/10 09:14:25;;;;;;;2.17;0.63;;;;;;;24.32;42.16;99450.13;5007233;28;20113;-57
2022/07/10 09:16:51;;;;;;;1.15;0.52;;;;;;;26.01;38.47;99446.66;5006471;28;20021;-59
2022/07/10 09:19:24;;;;;;;4.68;0.80;;;;;;;27.15;36.38;99442.47;5000992;28;20030;-58
2022/07/10 09:21:51;;;;;;;2.63;0.60;;;;;;;27.26;35.78;99445.97;4999034;28;20036;-57
2022/07/10 09:24:19;;;;;;;1.65;0.60;;;;;;;29.38;33.40;99446.50;5004114;28;20053;-57
2022/07/10 09:27:07;;;;;;;3.83;0.45;;;;;;;30.52;30.78;99445.44;4997389;28;20030;-58
2022/07/10 09:29:45;;;;;;;1.95;0.50;;;;;;;28.33;33.17;99444.34;5002859;28;20092;-57
2022/07/10 09:32:11;;;;;;;1.50;0.45;;;;;;;26.50;35.49;99447.63;5003778;28;20477;-57
2022/07/10 09:34:39;;;;;;;2.78;0.50;;;;;;;25.41;36.55;99445.94;5004742;28;20057;-57
2022/07/10 09:37:29;;;;;;;2.70;0.47;;;;;;;23.75;39.59;99459.50;5010183;28;20068;-58
2022/07/10 09:39:58;;;;;;;2.72;0.32;;;;;;;23.57;40.45;99458.03;4993075;28;20034;-57
2022/07/10 09:42:34;;;;;;;5.80;0.60;;;;;;;23.43;40.71;99465.22;5002721;28;20485;-57
2022/07/10 09:45:12;;;;;;;2.58;0.60;;;;;;;26.43;36.85;99468.19;4998894;28;20356;-57
2022/07/10 09:47:43;;;;;;;4.47;0.68;;;;;;;27.40;34.56;99462.72;5004239;28;20026;-57
2022/07/10 09:50:25;;;;;;;3.88;0.60;;;;;;;26.10;35.56;99461.59;5002255;28;20029;-57
2022/07/10 09:52:54;;;;;;;1.75;0.50;;;;;;;25.39;36.55;99457.31;4997663;28;20036;-57
2022/07/10 09:55:21;;;;;;;1.25;0.50;;;;;;;26.50;35.51;99467.06;5000988;28;20120;-56
2022/07/10 09:57:54;;;;;;;3.08;0.52;;;;;;;28.92;32.49;99458.56;4997065;28;20037;-57
2022/07/10 10:00:25;;;;;;;1.77;0.60;;;;;;;29.42;31.35;99453.09;5002354;28;20389;-59
2022/07/10 10:03:01;;;;;;;1.90;0.50;;;;;;;30.12;30.71;99448.94;5001046;28;20470;-57
2022/07/10 10:05:36;;;;;;;2.75;0.60;;;;;;;30.67;29.63;99456.22;5005776;28;20040;-57
2022/07/10 10:08:24;;;;;;;3.65;0.50;;;;;;;32.18;27.53;99443.91;5014093;28;20513;-58
2022/07/10 10:10:51;;;;;;;0.82;0.40;;;;;;;32.25;27.60;99445.03;4975292;28;20476;-58
2022/07/10 10:13:21;;;;;;;2.20;0.60;;;;;;;30.83;29.66;99444.66;5001342;28;20037;-58
2022/07/10 10:15:48;;;;;;;3.70;0.70;;;;;;;29.34;30.96;99444.63;5002841;28;20505;-58
2022/07/10 10:18:20;;;;;;;2.38;0.60;;;;;;;29.36;31.10;99442.38;4995730;28;20045;-58
2022/07/10 10:20:47;;;;;;;1.73;0.55;;;;;;;30.56;29.51;99446.47;5005391;28;20026;-58
2022/07/10 10:23:17;;;;;;;0.77;0.40;;;;;;;31.85;28.29;99442.41;5001544;28;20054;-58
2022/07/10 10:25:42;;;;;;;2.97;0.63;;;;;;;32.79;27.48;99436.16;4993386;28;20124;-58
2022/07/10 10:28:10;;;;;;;1.92;0.60;;;;;;;33.56;26.58;99433.28;5002707;28;20120;-58
2022/07/10 10:30:39;;;;;;;2.35;0.60;;;;;;;34.27;26.38;99426.75;5005815;28;20041;-59
2022/07/10 10:33:25;;;;;;;2.90;0.68;;;;;;;31.66;27.57;99434.34;5003667;28;20038;-58
2022/07/10 10:35:51;;;;;;;1.65;0.50;;;;;;;30.28;29.29;99435.47;5008628;28;20022;-59
2022/07/10 10:38:16;;;;;;;4.45;0.75;;;;;;;28.77;31.47;99429.06;5012722;28;20508;-59
2022/07/10 10:40:42;;;;;;;1.58;0.57;;;;;;;27.13;33.37;99444.72;5013838;28;20041;-59
2022/07/10 10:43:20;;;;;;;1.73;0.60;;;;;;;26.13;35.90;99449.06;5008319;28;20033;-58
2022/07/10 10:45:47;;;;;;;1.67;0.50;;;;;;;25.40;37.37;99436.81;5003443;28;20065;-59
2022/07/10 10:48:17;;;;;;;2.97;0.60;;;;;;;26.60;35.79;99442.81;5000567;28;20038;-58
2022/07/10 10:50:53;;;;;;;3.17;0.82;;;;;;;28.93;31.24;99420.41;5005060;28;20389;-58
2022/07/10 10:53:21;;;;;;;2.00;0.50;;;;;;;28.28;32.85;99441.66;4997648;28;20025;-58
2022/07/10 10:56:05;;;;;;;4.10;0.60;;;;;;;30.26;31.14;99429.41;5004281;28;20144;-58
2022/07/10 10:58:42;;;;;;;3.35;0.70;;;;;;;31.60;29.21;99437.66;5003376;28;20457;-58
2022/07/10 11:01:20;;;;;;;0.88;0.60;;;;;;;30.70;29.74;99440.78;5001137;28;20050;-58
2022/07/10 11:04:04;;;;;;;2.17;0.82;;;;;;;28.81;32.12;99438.44;5006874;28;20026;-58
2022/07/10 11:06:50;;;;;;;1.60;0.60;;;;;;;27.62;33.12;99435.19;5006406;28;20034;-58
2022/07/10 11:09:30;;;;;;;1.75;0.50;;;;;;;26.89;33.97;99441.94;5001522;28;20027;-58
2022/07/10 11:12:10;;;;;;;1.92;0.47;;;;;;;26.30;35.37;99443.09;4997360;28;20120;-58
2022/07/10 11:14:44;;;;;;;2.30;0.52;;;;;;;29.33;30.41;99421.53;5005076;28;20091;-58
2022/07/10 11:17:09;;;;;;;1.98;0.40;;;;;;;31.38;29.28;99431.00;5002791;28;20049;-58
2022/07/10 11:19:36;;;;;;;3.85;0.50;;;;;;;32.28;27.63;99424.78;4996319;28;20025;-58
2022/07/10 11:22:18;;;;;;;2.17;0.70;;;;;;;33.33;26.33;99427.19;4993972;28;20125;-58
2022/07/10 11:25:21;;;;;;;1.17;0.40;;;;;;;33.97;25.29;99417.59;5004875;28;21020;-58
2022/07/10 11:28:07;;;;;;;4.20;0.60;;;;;;;34.29;25.21;99418.78;5005184;28;20072;-58
2022/07/10 11:30:53;;;;;;;3.65;0.65;;;;;;;30.50;28.15;99422.63;5004095;28;20197;-58
2022/07/10 11:33:22;;;;;;;2.55;0.43;;;;;;;28.41;31.02;99424.16;5005943;28;20037;-58
2022/07/10 11:35:52;;;;;;;7.00;3.28;;;;;;;27.25;32.81;99425.69;4996246;28;20033;-58
2022/07/10 11:38:25;;;;;;;2.70;0.73;;;;;;;29.10;31.14;99428.97;5001563;28;20045;-58
2022/07/10 11:40:55;;;;;;;2.75;0.70;;;;;;;28.34;31.43;99429.28;5006650;28;20095;-58